Station: Mount Gambier

  Atmospheric Gas Attenuation - ITU Rec 676-11   --------------- db/100km ---------------
Date Time Temp RH % AH g/m3 Dew Point Wind Direction Speed kph Gust kph Barometer mB Rainfall Since 9am 24GHz 47GHz 76GHz 122GHz 134GHz 241GHz
17 01:10 2.8 93 5.46 1.8 6 6 1022.9 0 13.3 24.2 32.4 84.5 68.8 233.1
17 01:00 3.2 93 5.61 2.2 7 9 1023.1 0 13.6 24.3 32.9 85.7 70.5 239.2
17 00:50 3.1 93 5.57 2.1 9 9 1023 0 13.5 24.3 32.8 85.4 70.0 237.5
17 00:40 3.1 92 5.51 1.9 11 11 1023 0 13.4 24.2 32.5 84.7 69.2 234.7
17 00:30 3 91 5.42 1.7 9 9 1023.3 0 13.2 24.1 32.2 83.9 68.1 230.7
17 00:20 4.1 91 5.83 2.8 9 9 1023.2 0 14.1 24.5 33.4 87.2 72.7 246.9
17 00:10 3.9 89 5.63 2.3 11 11 1023.2 0 13.6 24.2 32.7 85.2 70.2 238.0
17 00:00 4.8 85 5.7 2.5 11 11 1023.5 0 13.7 24.1 32.6 85.0 70.3 238.6
16 23:50 5.6 88 6.23 3.8 9 11 1023.4 0 14.9 24.7 34.4 89.9 76.7 261.2
16 23:40 5.8 88 6.31 4 11 11 1023.5 0 15.0 24.8 34.7 90.6 77.6 264.3
16 23:30 5.9 87 6.28 3.9 13 13 1023.7 0 15.0 24.7 34.5 90.1 77.1 262.6
16 23:20 5.6 87 6.15 3.6 13 13 1023.7 0 14.7 24.6 34.1 89.0 75.6 257.4
16 23:10 6 88 6.39 4.2 11 11 1023.8 0 15.2 24.9 34.9 91.2 78.5 267.5
16 23:00 6 88 6.39 4.2 9 11 1024 0 15.2 24.9 34.9 91.2 78.5 267.6
16 22:50 6 88 6.39 4.2 11 11 1023.9 0 15.2 24.9 34.9 91.2 78.5 267.5
16 22:40 6.2 88 6.48 4.4 11 13 1023.9 0 15.4 25.0 35.2 92.0 79.5 271.2
16 22:30 6.2 88 6.48 4.4 11 11 1024.2 0 15.4 25.0 35.2 92.0 79.5 271.2
16 22:20 6.3 88 6.52 4.5 11 11 1024 0 15.5 25.0 35.4 92.3 80.0 272.7
16 22:10 6.5 89 6.68 4.8 9 11 1024 0 15.8 25.2 35.9 93.9 81.9 279.7
16 22:00 6.5 89 6.68 4.8 9 11 1024.2 0 15.8 25.3 35.9 93.9 81.9 279.7
16 21:50 6.7 89 6.77 5 9 11 1024 0 16.0 25.3 36.2 94.6 83.0 283.3
16 21:40 6.9 91 7.01 5.5 11 11 1024.1 0 16.5 25.7 37.1 97.0 86.0 294.1
16 21:30 6.8 91 6.96 5.4 9 11 1024.4 0 16.4 25.6 37.0 96.6 85.5 292.1
16 21:20 7.2 93 7.3 6.1 11 11 1024.2 0 17.1 26.1 38.2 99.9 89.7 307.0
16 21:10 7.3 93 7.35 6.2 9 9 1024.2 0 17.2 26.1 38.4 100.4 90.3 309.0
16 21:00 7 94 7.29 6.1 9 11 1024.4 0 17.1 26.1 38.3 100.1 89.8 307.4
16 20:50 6.9 95 7.32 6.2 11 11 1024.3 0 17.2 26.2 38.4 100.6 90.3 309.2
16 20:40 6.5 96 7.2 5.9 11 11 1024.3 0 16.9 26.1 38.1 99.7 89.1 304.9
16 20:30 5.6 96 6.79 5 7 7 1024.2 0 16.1 25.7 36.8 96.2 84.4 288.3
16 20:20 5.5 95 6.68 4.8 7 7 1024.1 0 15.8 25.5 36.4 95.1 83.0 283.3
16 20:10 5.6 95 6.72 4.9 6 7 1024 0 15.9 25.6 36.5 95.4 83.4 284.9
16 20:00 5.9 95 6.85 5.2 7 9 1024.3 0 16.2 25.7 36.9 96.5 84.9 290.1
16 19:50 5.9 95 6.85 5.2 9 9 1024 0 16.2 25.7 36.9 96.5 84.9 290.1
16 19:40 5.8 95 6.81 5.1 7 7 1023.9 0 16.1 25.7 36.8 96.2 84.5 288.5
16 19:30 6.2 95 6.99 5.5 6 7 1024.1 0 16.5 25.9 37.4 97.7 86.5 295.8
16 19:20 6.7 95 7.22 6 6 7 1023.8 0 16.9 26.1 38.1 99.6 89.1 305.0
16 19:10 6.3 94 6.96 5.4 7 7 1023.8 0 16.4 25.8 37.2 97.2 86.0 293.9
16 19:00 8 96 7.94 7.4 6 7 1023.9 0 18.4 26.9 40.5 106.1 97.6 334.9
16 18:50 7.9 96 7.89 7.3 6 7 1023.8 0 18.3 26.9 40.3 105.6 97.1 332.9
16 18:40 8 96 7.94 7.4 0 0 1023.7 0 18.4 26.9 40.5 106.1 97.6 334.9
16 18:30 7.4 94 7.48 6.5 0 0 1023.8 0 17.5 26.3 38.8 101.7 91.9 314.9
16 18:20 7.7 94 7.63 6.8 0 0 1023.5 0 17.8 26.5 39.3 102.9 93.6 320.9
16 18:10 7.9 94 7.72 7 0 0 1023.4 0 18.0 26.6 39.6 103.7 94.7 324.4
16 18:00 8.1 94 7.82 7.2 0 0 1023.5 0 18.2 26.7 39.9 104.5 95.8 328.5
16 17:50 8.2 93 7.79 7.1 0 0 1023.3 0 18.1 26.6 39.7 104.1 95.2 326.6
16 17:40 8.7 92 7.96 7.5 0 0 1023.3 0 18.5 26.7 40.2 105.3 97.0 332.7
16 17:30 9.3 92 8.27 8.1 2 6 1023.3 0 19.1 27.1 41.2 108.0 100.5 345.3
16 17:20 9.8 91 8.45 8.4 6 6 1023.2 0 19.5 27.2 41.7 109.3 102.4 351.8
16 17:10 10 88 8.27 8.1 6 6 1023.2 0 19.1 26.9 40.8 107.0 99.6 342.2
16 17:00 10.4 87 8.39 8.3 7 7 1023.4 0 19.3 26.9 41.1 107.8 100.8 346.3
16 16:50 10.6 83 8.1 7.8 7 7 1023.2 0 18.7 26.4 39.8 104.3 96.5 331.4
16 16:40 11.4 80 8.21 8.1 7 7 1023.2 0 18.9 26.3 39.9 104.5 97.0 333.2
16 16:30 13.1 74 8.44 8.6 6 7 1023.3 0 19.3 26.2 40.0 104.7 98.0 336.8
16 16:20 13.6 73 8.59 8.9 7 7 1023.1 0 19.6 26.3 40.3 105.6 99.3 341.6
16 16:10 13.9 73 8.75 9.1 9 9 1023.1 0 19.9 26.5 40.8 107.0 101.1 347.8
16 16:00 14.1 71 8.62 8.9 9 11 1023.3 0 19.6 26.2 40.2 105.3 99.1 340.9
16 15:50 14.3 70 8.6 8.9 7 9 1023.1 0 19.6 26.1 40.0 104.8 98.6 339.0
16 15:40 14.5 70 8.71 9.1 7 9 1023.1 0 19.8 26.2 40.3 105.7 99.8 343.3
16 15:30 14.6 70 8.76 9.2 9 11 1023.4 0 19.9 26.3 40.5 106.2 100.3 345.2
16 15:20 14.6 68 8.51 8.8 11 11 1023.2 0 19.3 25.9 39.5 103.5 97.0 333.7
16 15:10 14.8 69 8.74 9.2 7 7 1023.2 0 19.8 26.2 40.3 105.7 99.8 343.4
16 15:00 14.8 67 8.49 8.7 11 13 1023.4 0 19.3 25.8 39.3 103.0 96.5 331.9
16 14:50 14.8 70 8.87 9.4 11 13 1023.2 0 20.1 26.4 40.8 107.1 101.5 349.4
16 14:40 14.8 67 8.49 8.7 11 13 1023.2 0 19.3 25.8 39.3 103.0 96.5 331.9
16 14:30 14.7 69 8.69 9.1 9 13 1023.3 0 19.7 26.2 40.2 105.3 99.3 341.5
16 14:20 14.9 68 8.67 9.1 11 11 1023.2 0 19.7 26.1 40.0 104.8 98.7 339.7
16 14:10 14.8 68 8.61 9 11 11 1023.2 0 19.6 26.0 39.8 104.3 98.1 337.4
16 14:00 14.9 70 8.92 9.5 9 11 1023.4 0 20.2 26.5 41.0 107.5 102.1 351.3
16 13:50 15 67 8.59 8.9 11 13 1023.2 0 19.5 25.9 39.6 103.8 97.6 335.6
16 13:40 14.9 69 8.79 9.3 9 9 1023.2 0 19.9 26.3 40.4 106.1 100.3 345.2
16 13:30 14.3 70 8.6 8.9 9 11 1023.4 0 19.6 26.1 40.0 104.8 98.6 339.1
16 13:20 14.1 71 8.62 8.9 9 11 1023.2 0 19.6 26.2 40.2 105.3 99.1 340.9
16 13:10 14.2 69 8.43 8.6 9 11 1023.3 0 19.2 25.9 39.4 103.2 96.5 331.7
16 13:00 14.1 67 8.13 8.1 11 13 1023.6 0 18.6 25.4 38.2 100.1 92.7 318.4
16 12:50 13.9 70 8.39 8.5 11 13 1023.6 0 19.1 25.9 39.4 103.1 96.3 331.2
16 12:40 13.7 72 8.53 8.7 9 9 1023.7 0 19.4 26.2 40.0 104.9 98.5 338.5
16 12:30 13 71 8.05 7.9 11 13 1024 0 18.4 25.6 38.5 100.7 93.0 319.3
16 12:20 13.1 76 8.67 9 11 13 1024 0 19.8 26.6 40.9 107.3 101.1 347.8
16 12:10 11.9 78 8.26 8.2 13 13 1024.2 0 18.9 26.3 39.9 104.4 97.1 333.7
16 12:00 12.3 75 8.14 8 13 17 1024.6 0 18.7 26.0 39.2 102.6 95.1 326.5
16 11:50 12 80 8.53 8.7 13 15 1024.5 0 19.5 26.7 40.9 107.3 100.7 346.2
16 11:40 10.8 85 8.4 8.4 13 13 1024.7 0 19.3 26.9 41.0 107.5 100.5 345.3
16 11:30 9.9 87 8.13 7.8 11 13 1025 0 18.8 26.7 40.4 105.8 98.0 336.3
16 11:20 9.7 89 8.21 8 11 13 1024.9 0 18.9 26.9 40.8 106.9 99.3 341.0
16 11:10 9.1 90 7.99 7.5 11 13 1024.9 0 18.5 26.7 40.2 105.3 97.0 332.9
16 11:00 8.6 91 7.82 7.2 15 19 1025.3 0 18.2 26.6 39.7 104.1 95.3 326.9
16 10:50 8.1 91 7.58 6.7 15 17 1025.2 0 17.7 26.3 39.0 102.0 92.6 317.3
16 10:40 8.1 92 7.66 6.9 15 15 1025.2 0 17.8 26.5 39.3 102.9 93.7 321.2
16 10:30 7.5 92 7.37 6.3 17 19 1025.4 0 17.2 26.2 38.4 100.5 90.4 309.5
16 10:20 7.3 91 7.19 5.9 15 17 1025.2 0 16.9 25.9 37.7 98.7 88.1 301.5
16 10:10 7.4 91 7.24 6 15 15 1025.3 0 17.0 26.0 37.9 99.1 88.7 303.6
16 10:00 8.1 92 7.66 6.9 15 17 1025.4 0 17.8 26.5 39.3 102.9 93.7 321.2
16 09:50 7.2 93 7.3 6.1 15 15 1025.3 0 17.1 26.1 38.2 100.0 89.8 307.3
16 09:40 6.8 94 7.19 5.9 15 17 1025.3 0 16.9 26.1 38.0 99.3 88.7 303.5
16 09:30 6.4 94 7.01 5.5 13 15 1025.4 0 16.5 25.9 37.4 97.8 86.7 296.3
16 09:20 6.4 96 7.16 5.8 15 15 1025.2 0 16.8 26.1 38.0 99.5 88.8 303.6
16 09:10 6 95 6.9 5.3 13 13 1025.1 0 16.3 25.8 37.1 97.0 85.6 292.4
16 09:00 6.1 96 7.02 5.5 11 13 1025 0 16.5 26.0 37.6 98.3 87.1 297.8
16 08:50 6.4 98 7.31 6.1 9 11 1024.7 0 17.2 26.4 38.6 101.1 90.8 310.8
16 08:40 5.6 98 6.93 5.3 9 11 1024.7 0 16.4 26.0 37.4 97.8 86.4 295.3

Last Refresh: 17-Jul-2020 01:15:35

Most of the information presented on this site is sourced from the Bureau of Meteorology.  Copyright in all material sourced from the Bureau of Meteorology resides with the Commonwealth of Australia.